createdAt,value
2019-05-29T00:01:20.405Z,13.11
2019-05-29T00:03:47.869Z,13.21
2019-05-29T00:06:16.539Z,13.37
2019-05-29T00:08:44.983Z,13.48
2019-05-29T00:11:14.298Z,13.87
2019-05-29T00:13:42.867Z,13.61
2019-05-29T00:16:12.440Z,13.83
2019-05-29T00:18:40.947Z,13.83
2019-05-29T00:21:11.521Z,14.01
2019-05-29T00:23:39.899Z,13.98
2019-05-29T00:26:08.385Z,14.44
2019-05-29T00:28:36.795Z,13.87
2019-05-29T00:31:05.775Z,14.23
2019-05-29T00:33:34.340Z,13.69
2019-05-29T00:36:02.803Z,13.92
2019-05-29T00:38:31.236Z,13.61
2019-05-29T00:40:59.686Z,13.68
2019-05-29T00:43:28.365Z,13.65
2019-05-29T00:45:56.807Z,13.88
2019-05-29T00:48:25.240Z,13.89
2019-05-29T00:50:53.712Z,14.05
2019-05-29T00:53:22.285Z,14.12
2019-05-29T00:55:50.725Z,13.82
2019-05-29T00:58:19.845Z,13.40
2019-05-29T01:00:48.560Z,13.66
2019-05-29T01:03:17.919Z,13.41
2019-05-29T01:05:46.451Z,13.48
2019-05-29T01:08:14.903Z,13.86
2019-05-29T01:10:43.406Z,13.45
2019-05-29T01:13:13.121Z,13.60
2019-05-29T01:15:41.702Z,13.61
2019-05-29T01:18:10.176Z,13.44
2019-05-29T01:20:38.706Z,13.75
2019-05-29T01:23:07.162Z,13.88
2019-05-29T01:25:35.662Z,13.79
2019-05-29T01:28:04.289Z,13.84
2019-05-29T01:30:32.725Z,13.55
2019-05-29T01:33:01.167Z,13.55
2019-05-29T01:35:29.640Z,13.44
2019-05-29T01:37:58.070Z,13.78
2019-05-29T01:40:29.395Z,13.66
2019-05-29T01:42:56.727Z,13.58
2019-05-29T01:45:25.168Z,13.75
2019-05-29T01:47:53.606Z,13.46
2019-05-29T01:50:22.070Z,13.49
2019-05-29T01:52:50.521Z,13.52
2019-05-29T01:55:19.774Z,13.49
2019-05-29T01:57:48.399Z,13.63
2019-05-29T02:00:17.779Z,13.29
2019-05-29T02:02:46.275Z,13.10
2019-05-29T02:05:15.766Z,13.34
2019-05-29T02:07:44.363Z,13.30
2019-05-29T02:10:13.229Z,13.53
2019-05-29T02:12:41.761Z,13.65
2019-05-29T02:15:23.767Z,13.41
2019-05-29T02:17:40.889Z,13.12
2019-05-29T02:20:09.985Z,13.12
2019-05-29T02:22:38.567Z,13.03
2019-05-29T02:25:07.824Z,13.03
2019-05-29T02:27:36.361Z,13.48
2019-05-29T02:30:09.970Z,13.29
2019-05-29T02:32:38.503Z,13.34
2019-05-29T02:35:07.879Z,13.19
2019-05-29T02:37:36.314Z,12.97
2019-05-29T02:40:06.703Z,13.06
2019-05-29T02:42:35.301Z,12.97
2019-05-29T02:45:05.368Z,13.06
2019-05-29T02:47:33.800Z,13.40
2019-05-29T02:50:02.519Z,13.03
2019-05-29T02:52:30.959Z,13.21
2019-05-29T02:54:59.395Z,13.62
2019-05-29T02:57:29.102Z,13.42
2019-05-29T02:59:57.666Z,13.24
2019-05-29T03:02:27.765Z,13.34
2019-05-29T03:04:56.479Z,13.55
2019-05-29T03:07:26.327Z,13.38
2019-05-29T03:09:55.093Z,13.04
2019-05-29T03:12:25.038Z,13.32
2019-05-29T03:14:53.702Z,13.27
2019-05-29T03:17:23.634Z,13.15
2019-05-29T03:19:52.366Z,13.13
2019-05-29T03:22:20.792Z,12.91
2019-05-29T03:24:49.300Z,12.79
2019-05-29T03:27:17.754Z,12.68
2019-05-29T03:29:46.365Z,12.59
2019-05-29T03:32:14.983Z,12.61
2019-05-29T03:34:47.018Z,12.65
2019-05-29T03:37:13.594Z,12.73
2019-05-29T03:39:42.027Z,12.73
2019-05-29T03:42:10.547Z,12.71
2019-05-29T03:44:38.983Z,12.82
2019-05-29T03:47:07.486Z,12.99
2019-05-29T03:49:37.424Z,13.23
2019-05-29T03:52:06.153Z,13.34
2019-05-29T03:54:35.493Z,13.48
2019-05-29T03:57:04.295Z,13.44
2019-05-29T03:59:32.924Z,13.43
2019-05-29T04:02:01.854Z,13.65
2019-05-29T04:04:31.332Z,13.52
2019-05-29T04:07:00.275Z,13.52
2019-05-29T04:09:29.233Z,13.26
2019-05-29T04:11:58.373Z,13.46
2019-05-29T04:14:27.535Z,13.74
2019-05-29T04:17:00.264Z,13.46
2019-05-29T04:19:31.517Z,13.87
2019-05-29T04:22:03.174Z,14.01
2019-05-29T04:24:34.052Z,13.78
2019-05-29T04:27:04.182Z,14.08
2019-05-29T04:29:34.215Z,13.74
2019-05-29T04:32:02.762Z,14.09
2019-05-29T04:34:31.812Z,14.04
2019-05-29T04:37:01.356Z,14.05
2019-05-29T04:39:30.611Z,14.10
2019-05-29T04:41:59.290Z,13.86
2019-05-29T04:44:28.851Z,14.05
2019-05-29T04:47:10.212Z,14.01
2019-05-29T04:49:29.242Z,13.94
2019-05-29T04:51:57.989Z,13.82
2019-05-29T04:54:26.455Z,13.96
2019-05-29T04:56:54.952Z,13.61
2019-05-29T04:59:23.395Z,13.72
2019-05-29T05:01:51.871Z,13.47
2019-05-29T05:04:20.368Z,13.70
2019-05-29T05:06:48.833Z,13.82
2019-05-29T05:09:17.326Z,13.76
2019-05-29T05:11:45.741Z,13.63
2019-05-29T05:14:14.299Z,13.53
2019-05-29T05:16:42.788Z,13.73
2019-05-29T05:19:11.233Z,13.70
2019-05-29T05:21:40.270Z,13.87
2019-05-29T05:24:08.944Z,13.67
2019-05-29T05:26:38.394Z,13.69
2019-05-29T05:29:07.025Z,13.79
2019-05-29T05:31:37.078Z,13.83
2019-05-29T05:34:05.623Z,13.44
2019-05-29T05:36:34.714Z,13.67
2019-05-29T05:39:03.571Z,13.64
2019-05-29T05:41:36.849Z,13.77
2019-05-29T05:44:04.432Z,13.76
2019-05-29T05:46:33.007Z,13.81
2019-05-29T05:49:01.425Z,13.46
2019-05-29T05:51:31.185Z,13.50
2019-05-29T05:53:59.698Z,13.66
2019-05-29T05:56:28.138Z,13.91
2019-05-29T05:58:58.647Z,13.79
2019-05-29T06:01:27.061Z,13.90
2019-05-29T06:03:55.561Z,13.75
2019-05-29T06:06:23.998Z,13.51
2019-05-29T06:08:52.463Z,13.78
2019-05-29T06:11:20.911Z,13.53
2019-05-29T06:13:49.355Z,13.88
2019-05-29T06:16:17.811Z,13.90
2019-05-29T06:18:46.255Z,14.21
2019-05-29T06:21:14.729Z,13.98
2019-05-29T06:23:43.742Z,13.99
2019-05-29T06:26:12.496Z,14.18
2019-05-29T06:28:41.296Z,14.45
2019-05-29T06:31:09.862Z,14.32
2019-05-29T06:33:39.477Z,14.28
2019-05-29T06:36:08.168Z,14.47
2019-05-29T06:38:37.637Z,14.68
2019-05-29T06:41:06.321Z,14.81
2019-05-29T06:43:35.758Z,14.41
2019-05-29T06:46:04.333Z,14.72
2019-05-29T06:48:46.358Z,14.61
2019-05-29T06:51:04.695Z,14.72
2019-05-29T06:53:33.146Z,14.55
2019-05-29T06:56:02.661Z,14.12
2019-05-29T06:58:31.710Z,14.41
2019-05-29T07:01:00.968Z,14.70
2019-05-29T07:03:29.422Z,14.73
2019-05-29T07:05:57.934Z,14.23
2019-05-29T07:08:38.319Z,14.75
2019-05-29T07:10:56.653Z,14.46
2019-05-29T07:13:25.117Z,14.50
2019-05-29T07:15:53.582Z,14.99
2019-05-29T07:18:22.073Z,14.84
2019-05-29T07:20:50.498Z,14.77
2019-05-29T07:23:19.137Z,14.44
2019-05-29T07:25:47.584Z,14.28
2019-05-29T07:28:16.071Z,14.41
2019-05-29T07:30:53.697Z,14.29
2019-05-29T07:33:14.693Z,14.55
2019-05-29T07:35:43.589Z,14.90
2019-05-29T07:38:12.198Z,15.15
2019-05-29T07:40:42.574Z,15.63
2019-05-29T07:43:10.801Z,15.55
2019-05-29T07:45:40.621Z,15.52
2019-05-29T07:48:09.629Z,15.57
2019-05-29T07:50:38.082Z,15.54
2019-05-29T07:53:06.683Z,15.57
2019-05-29T07:55:35.156Z,15.72
2019-05-29T07:58:03.732Z,15.76
2019-05-29T08:00:35.601Z,15.97
2019-05-29T08:03:02.373Z,16.14
2019-05-29T08:05:30.885Z,15.60
2019-05-29T08:07:59.390Z,15.83
2019-05-29T08:10:27.884Z,15.98
2019-05-29T08:12:56.385Z,16.26
2019-05-29T08:15:25.017Z,15.64
2019-05-29T08:17:53.452Z,15.72
2019-05-29T08:20:22.024Z,16.05
2019-05-29T08:22:51.050Z,15.84
2019-05-29T08:25:19.822Z,16.00
2019-05-29T08:27:48.880Z,15.98
2019-05-29T08:30:18.463Z,16.29
2019-05-29T08:32:47.051Z,16.32
2019-05-29T08:35:15.623Z,16.26
2019-05-29T08:37:44.976Z,16.58
2019-05-29T08:40:15.064Z,16.82
2019-05-29T08:42:43.517Z,17.02
2019-05-29T08:45:12.263Z,16.92
2019-05-29T08:47:41.492Z,16.94
2019-05-29T08:50:18.673Z,16.86
2019-05-29T08:52:42.165Z,17.00
2019-05-29T08:55:13.807Z,17.24
2019-05-29T08:57:42.552Z,17.12
2019-05-29T09:00:12.417Z,17.49
2019-05-29T09:02:40.847Z,17.39
2019-05-29T09:05:09.992Z,17.59
2019-05-29T09:07:38.690Z,17.61
2019-05-29T09:10:08.658Z,17.80
2019-05-29T09:12:37.128Z,17.84
2019-05-29T09:15:09.302Z,17.74
2019-05-29T09:17:38.148Z,17.30
2019-05-29T09:20:07.527Z,17.66
2019-05-29T09:22:35.988Z,17.13
2019-05-29T09:25:06.879Z,16.71
2019-05-29T09:27:35.381Z,16.56
2019-05-29T09:30:05.160Z,16.88
2019-05-29T09:32:49.232Z,16.76
2019-05-29T09:35:04.599Z,17.19
2019-05-29T09:37:33.068Z,17.31
2019-05-29T09:40:01.503Z,17.38
2019-05-29T09:42:29.954Z,17.47
2019-05-29T09:44:58.482Z,17.40
2019-05-29T09:47:26.935Z,18.34
2019-05-29T09:49:55.358Z,17.87
2019-05-29T09:52:23.894Z,17.69
2019-05-29T09:54:53.579Z,18.01
2019-05-29T09:57:22.583Z,18.00
2019-05-29T09:59:51.112Z,18.14
2019-05-29T10:02:19.552Z,18.10
2019-05-29T10:04:48.075Z,18.22
2019-05-29T10:07:16.616Z,18.50
2019-05-29T10:09:45.085Z,17.78
2019-05-29T10:12:13.589Z,18.23
2019-05-29T10:14:42.238Z,18.25
2019-05-29T10:17:12.744Z,18.59
2019-05-29T10:19:40.862Z,18.72
2019-05-29T10:22:09.344Z,17.97
2019-05-29T10:24:37.770Z,18.31
2019-05-29T10:27:06.830Z,18.62
2019-05-29T10:29:35.455Z,18.34
2019-05-29T10:32:04.028Z,18.34
2019-05-29T10:34:32.548Z,19.24
2019-05-29T10:37:01.117Z,19.06
2019-05-29T10:39:29.552Z,18.70
2019-05-29T10:41:57.996Z,18.84
2019-05-29T10:44:26.434Z,18.87
2019-05-29T10:46:56.543Z,18.33
2019-05-29T10:49:25.431Z,19.36
2019-05-29T10:52:10.855Z,19.42
2019-05-29T10:54:24.318Z,18.37
2019-05-29T10:56:53.078Z,18.90
2019-05-29T10:59:21.832Z,19.49
2019-05-29T11:01:51.268Z,19.41
2019-05-29T11:04:20.245Z,19.61
2019-05-29T11:06:50.159Z,19.11
2019-05-29T11:09:18.823Z,19.64
2019-05-29T11:11:48.450Z,19.61
2019-05-29T11:14:17.215Z,19.91
2019-05-29T11:16:46.965Z,19.50
2019-05-29T11:19:15.654Z,19.58
2019-05-29T11:21:44.203Z,20.11
2019-05-29T11:24:12.837Z,19.75
2019-05-29T11:26:41.333Z,19.82
2019-05-29T11:29:09.801Z,19.75
2019-05-29T11:31:39.801Z,20.47
2019-05-29T11:34:08.241Z,20.01
2019-05-29T11:36:36.859Z,20.27
2019-05-29T11:39:09.410Z,20.08
2019-05-29T11:41:41.098Z,20.72
2019-05-29T11:44:09.575Z,20.31
2019-05-29T11:46:38.028Z,20.28
2019-05-29T11:49:06.567Z,19.75
2019-05-29T11:51:35.019Z,20.37
2019-05-29T11:54:03.450Z,20.35
2019-05-29T11:56:32.010Z,20.48
2019-05-29T11:59:00.732Z,19.87
2019-05-29T12:01:29.620Z,19.91
2019-05-29T12:04:20.551Z,20.27
2019-05-29T12:06:28.438Z,20.27
2019-05-29T12:08:57.962Z,20.24
2019-05-29T12:11:26.660Z,19.91
2019-05-29T12:13:56.073Z,19.98
2019-05-29T12:16:24.714Z,19.72
2019-05-29T12:18:53.661Z,19.66
2019-05-29T12:21:22.219Z,19.44
2019-05-29T12:23:51.901Z,18.97
2019-05-29T12:26:22.981Z,19.18
2019-05-29T12:28:50.615Z,19.70
2019-05-29T12:31:19.068Z,19.88
2019-05-29T12:33:47.529Z,20.11
2019-05-29T12:36:16.062Z,19.62
2019-05-29T12:38:44.583Z,19.55
2019-05-29T12:41:13.144Z,19.43
2019-05-29T12:43:41.667Z,19.47
2019-05-29T12:46:10.100Z,20.26
2019-05-29T12:48:38.674Z,20.62
2019-05-29T12:51:07.107Z,20.98
2019-05-29T12:53:35.606Z,21.18
2019-05-29T12:56:04.834Z,21.46
2019-05-29T12:58:33.355Z,20.60
2019-05-29T13:01:03.018Z,20.80
2019-05-29T13:03:31.946Z,20.87
2019-05-29T13:06:00.502Z,20.50
2019-05-29T13:08:28.925Z,20.16
2019-05-29T13:10:58.238Z,20.33
2019-05-29T13:13:26.867Z,20.72
2019-05-29T13:15:56.607Z,20.48
2019-05-29T13:18:25.258Z,20.24
2019-05-29T13:20:54.742Z,20.15
2019-05-29T13:23:23.269Z,20.27
2019-05-29T13:25:51.877Z,20.49
2019-05-29T13:28:20.310Z,20.18
2019-05-29T13:30:48.831Z,20.13
2019-05-29T13:33:17.412Z,19.78
2019-05-29T13:35:45.940Z,19.83
2019-05-29T13:38:14.377Z,19.87
2019-05-29T13:40:42.981Z,20.08
2019-05-29T13:43:15.541Z,20.60
2019-05-29T13:45:41.847Z,20.17
2019-05-29T13:48:10.314Z,20.49
2019-05-29T13:50:38.743Z,20.53
2019-05-29T13:53:07.580Z,20.61
2019-05-29T13:55:36.361Z,20.39
2019-05-29T13:58:05.827Z,20.50
2019-05-29T14:00:35.181Z,20.69
2019-05-29T14:03:04.882Z,20.56
2019-05-29T14:05:33.423Z,20.32
2019-05-29T14:08:02.751Z,20.76
2019-05-29T14:10:31.395Z,20.27
2019-05-29T14:13:00.974Z,20.25
2019-05-29T14:15:29.859Z,20.50
2019-05-29T14:17:58.677Z,20.33
2019-05-29T14:20:27.173Z,20.39
2019-05-29T14:22:55.605Z,20.60
2019-05-29T14:25:24.141Z,20.90
2019-05-29T14:27:52.573Z,20.73
2019-05-29T14:30:21.244Z,20.93
2019-05-29T14:32:49.711Z,20.99
2019-05-29T14:35:18.391Z,20.95
2019-05-29T14:37:46.852Z,21.11
2019-05-29T14:40:17.255Z,20.53
2019-05-29T14:42:45.779Z,21.12
2019-05-29T14:45:16.029Z,20.83
2019-05-29T14:47:44.716Z,20.73
2019-05-29T14:50:13.690Z,20.50
2019-05-29T14:52:42.139Z,20.87
2019-05-29T14:55:16.200Z,21.05
2019-05-29T14:57:41.233Z,20.91
2019-05-29T15:00:22.829Z,20.67
2019-05-29T15:02:42.669Z,20.49
2019-05-29T15:05:12.555Z,20.72
2019-05-29T15:07:42.016Z,21.28
2019-05-29T15:10:23.890Z,21.52
2019-05-29T15:12:41.576Z,21.61
2019-05-29T15:15:11.482Z,21.00
2019-05-29T15:17:40.952Z,21.21
2019-05-29T15:20:12.339Z,21.09
2019-05-29T15:22:40.496Z,20.94
2019-05-29T15:25:18.376Z,20.55
2019-05-29T15:27:40.205Z,19.92
2019-05-29T15:30:11.382Z,20.05
2019-05-29T15:32:39.897Z,20.00
2019-05-29T15:35:12.779Z,20.20
2019-05-29T15:37:39.322Z,20.17
2019-05-29T15:40:08.871Z,20.30
2019-05-29T15:42:37.430Z,20.19
2019-05-29T15:45:11.817Z,20.11
2019-05-29T15:47:40.517Z,20.27
2019-05-29T15:50:11.794Z,20.09
2019-05-29T15:52:41.522Z,19.80
2019-05-29T15:55:24.611Z,19.98
2019-05-29T15:57:41.053Z,20.00
2019-05-29T16:00:11.370Z,20.31
2019-05-29T16:02:40.351Z,20.36
2019-05-29T16:05:11.186Z,20.31
2019-05-29T16:07:39.922Z,20.35
2019-05-29T16:10:13.084Z,20.18
2019-05-29T16:12:40.192Z,20.44
2019-05-29T16:15:11.272Z,20.35
2019-05-29T16:17:39.981Z,20.41
2019-05-29T16:20:12.470Z,20.37
2019-05-29T16:22:40.895Z,20.51
2019-05-29T16:25:10.823Z,20.35
2019-05-29T16:27:39.391Z,20.39
2019-05-29T16:30:08.864Z,20.51
2019-05-29T16:32:37.456Z,20.46
2019-05-29T16:35:07.730Z,20.39
2019-05-29T16:37:36.234Z,20.17
2019-05-29T16:40:14.165Z,19.91
2019-05-29T16:42:42.942Z,19.68
2019-05-29T16:45:12.512Z,20.09
2019-05-29T16:47:41.239Z,20.04
2019-05-29T16:50:10.532Z,19.90
2019-05-29T16:52:39.035Z,20.12
2019-05-29T16:55:08.036Z,20.27
2019-05-29T16:57:36.534Z,19.96
2019-05-29T17:00:07.184Z,20.22
2019-05-29T17:02:35.710Z,19.93
2019-05-29T17:05:08.167Z,20.27
2019-05-29T17:07:36.666Z,20.06
2019-05-29T17:10:09.424Z,20.05
2019-05-29T17:12:37.878Z,20.32
2019-05-29T17:15:09.416Z,20.40
2019-05-29T17:17:37.901Z,20.35
2019-05-29T17:20:09.760Z,20.18
2019-05-29T17:22:38.346Z,20.03
2019-05-29T17:25:07.750Z,20.07
2019-05-29T17:27:36.260Z,20.19
2019-05-29T17:30:06.944Z,20.19
2019-05-29T17:32:35.436Z,19.98
2019-05-29T17:35:06.392Z,19.99
2019-05-29T17:37:34.879Z,20.07
2019-05-29T17:40:04.621Z,20.16
2019-05-29T17:42:33.090Z,20.18
2019-05-29T17:45:01.815Z,20.07
2019-05-29T17:47:30.402Z,20.10
2019-05-29T17:49:58.840Z,20.07
2019-05-29T17:52:27.342Z,20.16
2019-05-29T17:54:55.808Z,19.81
2019-05-29T17:57:24.253Z,19.92
2019-05-29T17:59:52.751Z,19.60
2019-05-29T18:02:22.213Z,19.45
2019-05-29T18:04:50.790Z,19.54
2019-05-29T18:07:20.512Z,19.42
2019-05-29T18:09:49.229Z,19.32
2019-05-29T18:12:19.051Z,19.42
2019-05-29T18:14:47.716Z,19.48
2019-05-29T18:17:17.724Z,19.55
2019-05-29T18:19:46.229Z,19.43
2019-05-29T18:22:14.726Z,19.58
2019-05-29T18:24:43.263Z,19.40
2019-05-29T18:27:11.774Z,19.46
2019-05-29T18:29:40.218Z,19.38
2019-05-29T18:32:08.786Z,19.25
2019-05-29T18:34:37.235Z,19.27
2019-05-29T18:37:05.893Z,19.35
2019-05-29T18:39:34.420Z,19.35
2019-05-29T18:42:02.934Z,19.19
2019-05-29T18:44:31.366Z,19.05
2019-05-29T18:47:01.014Z,19.01
2019-05-29T18:49:29.552Z,19.00
2019-05-29T18:52:00.288Z,18.88
2019-05-29T18:54:28.317Z,18.72
2019-05-29T18:57:13.648Z,18.81
2019-05-29T18:59:27.537Z,18.72
2019-05-29T19:01:56.282Z,18.63
2019-05-29T19:04:25.515Z,18.46
2019-05-29T19:06:54.232Z,18.24
2019-05-29T19:09:23.650Z,18.23
2019-05-29T19:11:52.236Z,17.96
2019-05-29T19:14:21.766Z,17.96
2019-05-29T19:16:50.337Z,17.66
2019-05-29T19:19:18.773Z,17.52
2019-05-29T19:21:47.346Z,17.37
2019-05-29T19:24:15.911Z,17.37
2019-05-29T19:26:44.349Z,17.25
2019-05-29T19:29:12.858Z,17.32
2019-05-29T19:31:42.611Z,17.19
2019-05-29T19:34:11.241Z,17.15
2019-05-29T19:36:39.793Z,16.87
2019-05-29T19:39:08.816Z,17.03
2019-05-29T19:41:37.267Z,16.72
2019-05-29T19:44:05.704Z,16.64
2019-05-29T19:46:48.568Z,16.54
2019-05-29T19:49:04.611Z,16.32
2019-05-29T19:51:33.567Z,16.27
2019-05-29T19:54:02.220Z,16.21
2019-05-29T19:56:31.726Z,16.18
2019-05-29T19:59:00.399Z,15.91
2019-05-29T20:01:34.158Z,16.11
2019-05-29T20:03:59.157Z,15.87
2019-05-29T20:06:28.781Z,15.96
2019-05-29T20:08:57.712Z,15.85
2019-05-29T20:11:27.572Z,15.69
2019-05-29T20:13:56.112Z,15.75
2019-05-29T20:16:24.675Z,15.75
2019-05-29T20:18:53.111Z,15.76
2019-05-29T20:21:21.790Z,15.85
2019-05-29T20:23:50.257Z,16.08
2019-05-29T20:26:18.778Z,15.98
2019-05-29T20:28:47.241Z,15.93
2019-05-29T20:31:15.733Z,15.97
2019-05-29T20:33:44.180Z,15.98
2019-05-29T20:36:12.702Z,15.48
2019-05-29T20:38:41.415Z,15.40
2019-05-29T20:41:09.894Z,15.44
2019-05-29T20:43:39.632Z,15.56
2019-05-29T20:46:08.439Z,15.62
2019-05-29T20:48:36.955Z,15.55
2019-05-29T20:51:05.628Z,15.59
2019-05-29T20:53:35.280Z,15.56
2019-05-29T20:56:04.233Z,15.38
2019-05-29T20:58:33.746Z,15.21
2019-05-29T21:01:03.382Z,15.01
2019-05-29T21:03:32.307Z,14.74
2019-05-29T21:06:00.781Z,14.99
2019-05-29T21:08:29.311Z,14.95
2019-05-29T21:10:57.753Z,14.97
2019-05-29T21:13:26.190Z,14.96
2019-05-29T21:15:54.648Z,14.81
2019-05-29T21:18:23.155Z,14.91
2019-05-29T21:20:51.612Z,14.98
2019-05-29T21:23:20.094Z,14.92
2019-05-29T21:25:48.525Z,14.85
2019-05-29T21:28:16.960Z,14.55
2019-05-29T21:30:45.775Z,14.45
2019-05-29T21:33:14.301Z,14.45
2019-05-29T21:35:44.188Z,14.52
2019-05-29T21:38:12.827Z,14.34
2019-05-29T21:40:42.439Z,14.44
2019-05-29T21:43:11.082Z,14.61
2019-05-29T21:45:40.952Z,14.60
2019-05-29T21:48:09.552Z,14.58
2019-05-29T21:50:38.823Z,14.62
2019-05-29T21:53:07.658Z,14.63
2019-05-29T21:55:37.447Z,14.66
2019-05-29T21:58:06.142Z,14.51
2019-05-29T22:00:49.505Z,14.39
2019-05-29T22:03:18.005Z,14.61
2019-05-29T22:05:46.857Z,14.63
2019-05-29T22:08:15.603Z,14.56
2019-05-29T22:10:44.764Z,14.43
2019-05-29T22:13:13.436Z,14.39
2019-05-29T22:15:41.897Z,14.43
2019-05-29T22:18:10.339Z,14.29
2019-05-29T22:20:38.904Z,14.31
2019-05-29T22:23:07.552Z,14.26
2019-05-29T22:25:36.065Z,14.19
2019-05-29T22:28:04.634Z,13.92
2019-05-29T22:30:33.256Z,13.89
2019-05-29T22:33:02.035Z,13.77
2019-05-29T22:35:30.388Z,13.62
2019-05-29T22:38:00.048Z,13.37
2019-05-29T22:40:28.726Z,13.52
2019-05-29T22:42:57.608Z,13.56
2019-05-29T22:45:26.074Z,13.54
2019-05-29T22:47:55.762Z,13.20
2019-05-29T22:50:24.290Z,13.43
2019-05-29T22:52:53.818Z,13.50
2019-05-29T22:55:22.433Z,13.31
2019-05-29T22:57:51.873Z,13.34
2019-05-29T23:00:20.917Z,13.09
2019-05-29T23:02:49.359Z,13.32
2019-05-29T23:05:18.473Z,13.37
2019-05-29T23:07:47.230Z,13.44
2019-05-29T23:10:16.497Z,13.44
2019-05-29T23:12:44.933Z,13.33
2019-05-29T23:15:14.643Z,13.10
2019-05-29T23:17:43.177Z,13.16
2019-05-29T23:20:12.150Z,13.43
2019-05-29T23:22:40.677Z,13.36
2019-05-29T23:25:10.061Z,13.57
2019-05-29T23:27:38.500Z,13.63
2019-05-29T23:30:10.922Z,13.63
2019-05-29T23:32:39.502Z,13.61
2019-05-29T23:35:08.679Z,13.69
2019-05-29T23:37:37.196Z,13.58
2019-05-29T23:40:08.115Z,13.85
2019-05-29T23:42:36.546Z,13.89
2019-05-29T23:45:08.853Z,13.67
2019-05-29T23:47:37.282Z,13.77
2019-05-29T23:50:07.152Z,13.74
2019-05-29T23:52:35.622Z,13.68
2019-05-29T23:55:05.495Z,13.60
2019-05-29T23:57:33.926Z,13.86
